Time,TemperatureF,DewpointF,PressureIn,WindDirection,WindDirectionDegrees,WindSpeedMPH,WindSpeedGustMPH,Humidity,HourlyPrecipIn,Conditions,Clouds,dailyrainin,SolarRadiationWatts/m^2,SoftwareType,DateUTC
2013-10-12 00:01:00,59.5,59.5,30.00,West,277,0.0,0.0,100,0.04,,CLR,0.00,0.00,VWS V14.01,2013-10-12 04:01:00,
2013-10-12 00:02:00,59.5,59.5,30.00,West,276,0.0,0.0,100,0.04,,CLR,0.00,0.00,VWS V14.01,2013-10-12 04:02:00,
2013-10-12 00:03:00,59.5,59.5,30.00,West,276,0.0,0.0,100,0.04,,CLR,0.00,0.00,VWS V14.01,2013-10-12 04:03:00,
2013-10-12 00:08:00,59.5,59.5,30.00,West,276,0.0,0.0,100,0.04,,CLR,0.00,0.00,VWS V14.01,2013-10-12 04:08:00,
2013-10-12 00:13:00,59.5,59.5,29.99,WNW,284,0.0,1.0,100,0.05,,CLR,0.01,0.00,VWS V14.01,2013-10-12 04:13:00,
2013-10-12 00:18:00,59.5,59.5,29.99,NW,320,2.0,3.0,100,0.05,,CLR,0.01,0.00,VWS V14.01,2013-10-12 04:18:00,
2013-10-12 00:23:00,59.6,59.6,29.99,North,5,2.0,4.0,100,0.05,,CLR,0.02,0.00,VWS V14.01,2013-10-12 04:23:00,
2013-10-12 00:28:00,59.6,59.6,29.98,North,360,2.0,2.0,100,0.05,,CLR,0.03,0.00,VWS V14.01,2013-10-12 04:28:00,
2013-10-12 00:33:00,59.7,59.7,29.98,NNE,15,0.0,4.0,100,0.06,,CLR,0.04,0.00,VWS V14.01,2013-10-12 04:33:00,
2013-10-12 00:39:00,59.8,59.8,29.98,North,355,2.0,4.0,100,0.07,,CLR,0.05,0.00,VWS V14.01,2013-10-12 04:39:00,
2013-10-12 00:44:00,59.9,59.9,29.98,North,360,3.0,6.0,100,0.07,,CLR,0.05,0.00,VWS V14.01,2013-10-12 04:44:00,
2013-10-12 00:49:00,60.1,60.1,29.98,North,360,3.0,6.0,100,0.08,,CLR,0.06,0.00,VWS V14.01,2013-10-12 04:49:00,
2013-10-12 00:54:00,60.2,60.2,29.98,NNE,18,1.0,2.0,100,0.07,,CLR,0.06,0.00,VWS V14.01,2013-10-12 04:54:00,
2013-10-12 00:59:00,60.2,60.2,29.98,North,360,3.0,3.0,100,0.06,,CLR,0.06,0.00,VWS V14.01,2013-10-12 04:59:00,
2013-10-12 01:04:00,60.3,60.3,29.98,NNE,15,2.0,6.0,100,0.06,,CLR,0.06,0.00,VWS V14.01,2013-10-12 05:04:00,
2013-10-12 01:10:00,60.4,60.4,29.98,North,360,0.0,1.0,100,0.06,,CLR,0.07,0.00,VWS V14.01,2013-10-12 05:10:00,
2013-10-12 01:15:00,60.4,60.4,29.98,North,360,0.0,1.0,100,0.06,,CLR,0.07,0.00,VWS V14.01,2013-10-12 05:15:00,
2013-10-12 01:20:00,60.4,60.4,29.98,NNE,27,0.0,0.0,100,0.06,,CLR,0.07,0.00,VWS V14.01,2013-10-12 05:20:00,
2013-10-12 01:25:00,60.5,60.5,29.98,NNE,23,0.0,4.0,100,0.05,,CLR,0.07,0.00,VWS V14.01,2013-10-12 05:25:00,
2013-10-12 01:30:00,60.5,60.5,29.98,NNE,18,0.0,0.0,100,0.04,,CLR,0.07,0.00,VWS V14.01,2013-10-12 05:30:00,
2013-10-12 01:35:00,60.5,60.5,29.98,NNE,13,0.0,3.0,100,0.04,,CLR,0.08,0.00,VWS V14.01,2013-10-12 05:35:00,
2013-10-12 01:40:00,60.5,60.5,29.98,NNE,14,0.0,1.0,100,0.03,,CLR,0.08,0.00,VWS V14.01,2013-10-12 05:40:00,
2013-10-12 01:45:00,60.6,60.6,29.99,NNE,15,0.0,0.0,100,0.03,,CLR,0.08,0.00,VWS V14.01,2013-10-12 05:45:00,
2013-10-12 01:50:00,60.6,60.6,29.99,NNE,15,0.0,1.0,100,0.02,,CLR,0.08,0.00,VWS V14.01,2013-10-12 05:50:00,
2013-10-12 01:56:00,60.6,60.6,29.99,NNE,27,0.0,0.0,100,0.02,,CLR,0.08,0.00,VWS V14.01,2013-10-12 05:56:00,
2013-10-12 02:01:00,60.6,60.6,29.99,NNE,13,0.0,2.0,100,0.02,,CLR,0.08,0.00,VWS V14.01,2013-10-12 06:01:00,
2013-10-12 02:06:00,60.6,60.6,29.99,North,9,0.0,4.0,100,0.03,,CLR,0.09,0.00,VWS V14.01,2013-10-12 06:06:00,
2013-10-12 02:11:00,60.6,60.6,29.99,NNE,17,0.0,2.0,100,0.02,,CLR,0.09,0.00,VWS V14.01,2013-10-12 06:11:00,
2013-10-12 02:16:00,60.6,60.6,29.99,NNE,17,0.0,0.0,100,0.02,,CLR,0.09,0.00,VWS V14.01,2013-10-12 06:16:00,
2013-10-12 02:21:00,60.6,60.6,29.98,NNE,17,0.0,0.0,100,0.02,,CLR,0.09,0.00,VWS V14.01,2013-10-12 06:21:00,
2013-10-12 02:26:00,60.6,60.6,29.98,NNE,17,0.0,1.0,100,0.02,,CLR,0.09,0.00,VWS V14.01,2013-10-12 06:26:00,
2013-10-12 02:31:00,60.6,60.6,29.98,NNE,17,0.0,2.0,100,0.02,,CLR,0.09,0.00,VWS V14.01,2013-10-12 06:31:00,
2013-10-12 02:36:00,60.5,60.5,29.98,NNE,17,0.0,1.0,100,0.01,,CLR,0.09,0.00,VWS V14.01,2013-10-12 06:36:00,
2013-10-12 02:41:00,60.5,60.5,29.99,NNE,17,0.0,1.0,100,0.01,,CLR,0.09,0.00,VWS V14.01,2013-10-12 06:41:00,
2013-10-12 02:46:00,60.6,60.6,29.99,NNE,17,0.0,0.0,100,0.01,,CLR,0.09,0.00,VWS V14.01,2013-10-12 06:46:00,
2013-10-12 02:52:00,60.5,60.5,29.99,NNE,17,0.0,0.0,100,0.01,,CLR,0.09,0.00,VWS V14.01,2013-10-12 06:52:00,
2013-10-12 02:57:00,60.5,60.5,29.99,NNE,21,0.0,1.0,100,0.01,,CLR,0.09,0.00,VWS V14.01,2013-10-12 06:57:00,
2013-10-12 03:02:00,60.5,60.5,29.99,NNE,22,0.0,1.0,100,0.01,,CLR,0.09,0.00,VWS V14.01,2013-10-12 07:02:00,
2013-10-12 03:07:00,60.5,60.5,29.99,NNE,14,0.0,4.0,100,0.01,,CLR,0.09,0.00,VWS V14.01,2013-10-12 07:07:00,
2013-10-12 03:12:00,60.5,60.5,29.99,North,349,0.0,4.0,100,0.00,,CLR,0.09,0.00,VWS V14.01,2013-10-12 07:12:00,
2013-10-12 03:17:00,60.5,60.5,29.99,North,9,0.0,4.0,100,0.00,,CLR,0.09,0.00,VWS V14.01,2013-10-12 07:17:00,
2013-10-12 03:22:00,60.6,60.6,29.99,North,9,0.0,0.0,100,0.00,,CLR,0.09,0.00,VWS V14.01,2013-10-12 07:22:00,
2013-10-12 03:28:00,60.6,60.6,29.99,North,9,1.0,1.0,100,0.00,,CLR,0.09,0.00,VWS V14.01,2013-10-12 07:28:00,
2013-10-12 03:33:00,60.6,60.6,29.99,North,10,0.0,1.0,100,0.00,,CLR,0.09,0.00,VWS V14.01,2013-10-12 07:33:00,
2013-10-12 03:38:00,60.6,60.6,29.98,NE,39,0.0,1.0,100,0.00,,CLR,0.09,0.00,VWS V14.01,2013-10-12 07:38:00,
2013-10-12 03:43:00,60.6,60.6,29.98,NNE,21,1.0,5.0,100,0.00,,CLR,0.09,0.00,VWS V14.01,2013-10-12 07:43:00,
2013-10-12 03:48:00,60.7,60.7,29.99,North,355,0.0,2.0,100,0.00,,CLR,0.09,0.00,VWS V14.01,2013-10-12 07:48:00,
2013-10-12 03:53:00,60.7,60.7,29.98,NNW,342,0.0,5.0,100,0.00,,CLR,0.09,0.00,VWS V14.01,2013-10-12 07:53:00,
2013-10-12 03:58:00,60.7,60.7,29.99,North,355,2.0,4.0,100,0.00,,CLR,0.09,0.00,VWS V14.01,2013-10-12 07:58:00,
2013-10-12 04:03:00,60.7,60.7,29.99,NNE,13,0.0,4.0,100,0.00,,CLR,0.09,0.00,VWS V14.01,2013-10-12 08:03:00,
2013-10-12 04:08:00,60.8,60.8,29.99,NNE,15,0.0,1.0,100,0.00,,CLR,0.09,0.00,VWS V14.01,2013-10-12 08:08:00,
2013-10-12 04:14:00,60.7,60.7,29.99,NNE,18,0.0,5.0,100,0.00,,CLR,0.09,0.00,VWS V14.01,2013-10-12 08:14:00,
2013-10-12 04:19:00,60.8,60.8,29.99,NNE,18,0.0,0.0,100,0.00,,CLR,0.09,0.00,VWS V14.01,2013-10-12 08:19:00,
2013-10-12 04:24:00,60.8,60.8,29.99,NNE,18,0.0,0.0,100,0.00,,CLR,0.09,0.00,VWS V14.01,2013-10-12 08:24:00,
2013-10-12 04:29:00,60.7,60.7,29.99,NNE,18,0.0,1.0,100,0.00,,CLR,0.09,0.00,VWS V14.01,2013-10-12 08:29:00,
2013-10-12 04:34:00,60.7,60.7,30.00,North,11,2.0,3.0,100,0.00,,CLR,0.09,0.00,VWS V14.01,2013-10-12 08:34:00,
2013-10-12 04:39:00,60.7,60.7,30.00,North,11,0.0,2.0,100,0.00,,CLR,0.09,0.00,VWS V14.01,2013-10-12 08:39:00,
2013-10-12 04:44:00,60.7,60.7,30.00,NNE,12,0.0,0.0,100,0.00,,CLR,0.09,0.00,VWS V14.01,2013-10-12 08:44:00,
2013-10-12 04:49:00,60.7,60.7,30.00,NE,38,0.0,0.0,100,0.01,,CLR,0.10,0.00,VWS V14.01,2013-10-12 08:49:00,
2013-10-12 04:54:00,60.7,60.7,30.00,NE,38,0.0,0.0,100,0.01,,CLR,0.10,0.00,VWS V14.01,2013-10-12 08:54:00,
2013-10-12 04:59:00,60.7,60.7,30.01,NE,38,0.0,0.0,100,0.01,,CLR,0.10,0.00,VWS V14.01,2013-10-12 08:59:00,
2013-10-12 05:04:00,60.7,60.7,30.01,NE,38,0.0,0.0,100,0.01,,CLR,0.10,0.00,VWS V14.01,2013-10-12 09:04:00,
2013-10-12 05:09:00,60.7,60.7,30.01,NE,38,0.0,0.0,100,0.01,,CLR,0.10,0.00,VWS V14.01,2013-10-12 09:09:00,
2013-10-12 05:14:00,60.7,60.7,30.01,NE,38,0.0,0.0,100,0.01,,CLR,0.10,0.00,VWS V14.01,2013-10-12 09:14:00,
2013-10-12 05:19:00,60.7,60.7,30.01,NE,38,0.0,0.0,100,0.01,,CLR,0.10,0.00,VWS V14.01,2013-10-12 09:19:00,
2013-10-12 05:24:00,60.7,60.7,30.01,NNE,25,0.0,1.0,100,0.01,,CLR,0.10,0.00,VWS V14.01,2013-10-12 09:24:00,
2013-10-12 05:30:00,60.6,60.6,30.01,North,360,0.0,3.0,100,0.01,,CLR,0.10,0.00,VWS V14.01,2013-10-12 09:30:00,
2013-10-12 05:35:00,60.6,60.6,30.01,North,360,0.0,1.0,100,0.01,,CLR,0.10,0.00,VWS V14.01,2013-10-12 09:35:00,
2013-10-12 05:40:00,60.6,60.6,30.02,North,11,0.0,0.0,100,0.01,,CLR,0.10,0.00,VWS V14.01,2013-10-12 09:40:00,
2013-10-12 05:45:00,60.6,60.6,30.01,North,355,3.0,4.0,100,0.01,,CLR,0.10,0.00,VWS V14.01,2013-10-12 09:45:00,
2013-10-12 05:51:00,60.6,60.6,30.02,North,5,0.0,0.0,100,0.00,,CLR,0.10,0.00,VWS V14.01,2013-10-12 09:51:00,
2013-10-12 05:56:00,60.7,60.7,30.02,North,360,0.0,0.0,100,0.00,,CLR,0.10,0.00,VWS V14.01,2013-10-12 09:56:00,
2013-10-12 06:01:00,60.7,60.7,30.02,North,360,0.0,0.0,100,0.00,,CLR,0.10,0.00,VWS V14.01,2013-10-12 10:01:00,
2013-10-12 06:07:00,60.7,60.7,30.02,North,360,0.0,1.0,100,0.00,,CLR,0.10,0.00,VWS V14.01,2013-10-12 10:07:00,
2013-10-12 06:12:00,60.7,60.7,30.02,North,5,0.0,0.0,100,0.00,,CLR,0.10,0.00,VWS V14.01,2013-10-12 10:12:00,
2013-10-12 06:17:00,60.7,60.7,30.02,NE,34,0.0,1.0,100,0.00,,CLR,0.10,0.00,VWS V14.01,2013-10-12 10:17:00,
2013-10-12 06:22:00,60.6,60.6,30.02,North,360,0.0,3.0,100,0.00,,CLR,0.10,0.00,VWS V14.01,2013-10-12 10:22:00,
2013-10-12 06:27:00,60.6,60.6,30.03,NNE,21,0.0,2.0,100,0.00,,CLR,0.10,0.00,VWS V14.01,2013-10-12 10:27:00,
2013-10-12 06:32:00,60.7,60.7,30.03,NNE,21,0.0,1.0,100,0.00,,CLR,0.10,0.00,VWS V14.01,2013-10-12 10:32:00,
2013-10-12 06:38:00,60.7,60.7,30.03,NNE,21,0.0,1.0,100,0.00,,CLR,0.10,0.00,VWS V14.01,2013-10-12 10:38:00,
2013-10-12 06:43:00,60.7,60.7,30.03,North,10,0.0,2.0,100,0.00,,CLR,0.10,0.00,VWS V14.01,2013-10-12 10:43:00,
2013-10-12 06:48:00,60.6,60.6,30.03,North,10,0.0,1.0,100,0.00,,CLR,0.10,0.00,VWS V14.01,2013-10-12 10:48:00,
2013-10-12 06:53:00,60.5,60.5,30.03,North,360,0.0,3.0,100,0.00,,CLR,0.10,0.00,VWS V14.01,2013-10-12 10:53:00,
2013-10-12 06:58:00,60.5,60.5,30.03,North,360,0.0,1.0,100,0.00,,CLR,0.10,0.00,VWS V14.01,2013-10-12 10:58:00,
2013-10-12 07:03:00,60.4,60.4,30.03,NNE,16,0.0,4.0,100,0.00,,CLR,0.10,0.00,VWS V14.01,2013-10-12 11:03:00,
2013-10-12 07:08:00,60.3,60.3,30.04,North,11,0.0,3.0,100,0.00,,CLR,0.10,0.00,VWS V14.01,2013-10-12 11:08:00,
2013-10-12 07:13:00,60.3,60.3,30.04,NNE,14,0.0,4.0,100,0.00,,CLR,0.10,0.00,VWS V14.01,2013-10-12 11:13:00,
2013-10-12 07:18:00,60.2,60.2,30.04,NNE,21,0.0,4.0,100,0.00,,CLR,0.10,0.00,VWS V14.01,2013-10-12 11:18:00,
2013-10-12 07:24:00,60.2,60.2,30.04,North,11,0.0,5.0,100,0.00,,CLR,0.10,0.00,VWS V14.01,2013-10-12 11:24:00,
2013-10-12 07:29:00,60.1,60.1,30.04,NNE,26,0.0,4.0,100,0.00,,CLR,0.10,0.00,VWS V14.01,2013-10-12 11:29:00,
2013-10-12 07:34:00,60.1,60.1,30.04,NNE,17,0.0,2.0,100,0.00,,CLR,0.10,5.00,VWS V14.01,2013-10-12 11:34:00,
2013-10-12 07:39:00,60.1,60.1,30.04,NNE,30,0.0,3.0,100,0.00,,CLR,0.10,7.00,VWS V14.01,2013-10-12 11:39:00,
2013-10-12 07:44:00,60.1,60.1,30.04,NNE,30,0.0,0.0,100,0.00,,CLR,0.10,11.00,VWS V14.01,2013-10-12 11:44:00,
2013-10-12 07:49:00,60.1,60.1,30.04,NNE,14,0.0,0.0,100,0.00,,CLR,0.10,12.00,VWS V14.01,2013-10-12 11:49:00,
2013-10-12 07:54:00,60.1,60.1,30.05,NNE,14,0.0,0.0,100,0.00,,CLR,0.10,16.00,VWS V14.01,2013-10-12 11:54:00,
2013-10-12 07:59:00,60.2,59.9,30.04,North,5,0.0,3.0,99,0.00,,CLR,0.10,21.00,VWS V14.01,2013-10-12 11:59:00,
2013-10-12 08:04:00,60.2,59.9,30.05,North,9,2.0,2.0,99,0.00,,CLR,0.10,30.00,VWS V14.01,2013-10-12 12:04:00,
2013-10-12 08:10:00,60.2,59.9,30.05,North,11,0.0,0.0,99,0.00,,CLR,0.10,37.00,VWS V14.01,2013-10-12 12:10:00,
2013-10-12 08:15:00,60.2,59.9,30.05,NNE,26,0.0,2.0,99,0.00,,CLR,0.10,35.00,VWS V14.01,2013-10-12 12:15:00,
2013-10-12 08:20:00,60.2,59.9,30.05,North,360,0.0,1.0,99,0.00,,CLR,0.10,39.00,VWS V14.01,2013-10-12 12:20:00,
2013-10-12 08:25:00,60.2,59.9,30.05,NNE,14,0.0,4.0,99,0.00,,CLR,0.10,37.00,VWS V14.01,2013-10-12 12:25:00,
2013-10-12 08:30:00,60.2,59.9,30.05,NNE,16,3.0,5.0,99,0.00,,CLR,0.10,39.00,VWS V14.01,2013-10-12 12:30:00,
2013-10-12 08:35:00,60.2,59.9,30.05,NNE,12,2.0,6.0,99,0.00,,CLR,0.10,44.00,VWS V14.01,2013-10-12 12:35:00,
2013-10-12 08:40:00,60.2,59.9,30.05,North,9,1.0,6.0,99,0.00,,CLR,0.10,56.00,VWS V14.01,2013-10-12 12:40:00,
2013-10-12 08:46:00,60.4,59.8,30.06,North,355,0.0,3.0,98,0.00,,CLR,0.10,86.00,VWS V14.01,2013-10-12 12:46:00,
2013-10-12 08:51:00,60.5,59.9,30.06,North,9,0.0,2.0,98,0.00,,CLR,0.10,132.00,VWS V14.01,2013-10-12 12:51:00,
2013-10-12 08:56:00,60.7,60.1,30.06,NNW,341,0.0,3.0,98,0.00,,CLR,0.10,199.00,VWS V14.01,2013-10-12 12:56:00,
2013-10-12 09:01:00,61.0,60.4,30.06,North,11,0.0,1.0,98,0.00,,CLR,0.10,153.00,VWS V14.01,2013-10-12 13:01:00,
2013-10-12 09:06:00,61.3,60.7,30.07,North,360,0.0,1.0,98,0.00,,CLR,0.10,111.00,VWS V14.01,2013-10-12 13:06:00,
2013-10-12 09:11:00,61.6,61.0,30.07,NNE,13,0.0,4.0,98,0.00,,CLR,0.10,123.00,VWS V14.01,2013-10-12 13:11:00,
2013-10-12 09:16:00,61.7,60.8,30.07,North,355,4.0,5.0,97,0.00,,CLR,0.10,105.00,VWS V14.01,2013-10-12 13:16:00,
2013-10-12 09:21:00,61.8,60.9,30.07,North,355,0.0,5.0,97,0.00,,CLR,0.10,83.00,VWS V14.01,2013-10-12 13:21:00,
2013-10-12 09:27:00,61.9,60.8,30.07,North,360,1.0,4.0,96,0.00,,CLR,0.10,104.00,VWS V14.01,2013-10-12 13:27:00,
2013-10-12 09:32:00,62.1,61.0,30.07,North,9,0.0,3.0,96,0.00,,CLR,0.10,100.00,VWS V14.01,2013-10-12 13:32:00,
2013-10-12 09:37:00,62.1,60.7,30.07,NNE,15,0.0,4.0,95,0.00,,CLR,0.10,54.00,VWS V14.01,2013-10-12 13:37:00,
2013-10-12 09:42:00,62.2,60.8,30.07,NNE,15,0.0,1.0,95,0.00,,CLR,0.10,58.00,VWS V14.01,2013-10-12 13:42:00,
2013-10-12 09:48:00,62.2,60.8,30.07,North,10,0.0,0.0,95,0.00,,CLR,0.10,72.00,VWS V14.01,2013-10-12 13:48:00,
2013-10-12 09:53:00,62.2,60.5,30.07,North,360,0.0,2.0,94,0.00,,CLR,0.10,65.00,VWS V14.01,2013-10-12 13:53:00,
2013-10-12 09:58:00,62.3,60.6,30.07,North,355,0.0,1.0,94,0.00,,CLR,0.10,76.00,VWS V14.01,2013-10-12 13:58:00,
2013-10-12 10:03:00,62.4,60.7,30.07,North,360,0.0,0.0,94,0.00,,CLR,0.10,70.00,VWS V14.01,2013-10-12 14:03:00,
2013-10-12 10:08:00,62.5,60.5,30.07,North,5,0.0,0.0,93,0.00,,CLR,0.10,51.00,VWS V14.01,2013-10-12 14:08:00,
2013-10-12 10:13:00,62.5,60.5,30.08,North,5,0.0,0.0,93,0.00,,CLR,0.10,49.00,VWS V14.01,2013-10-12 14:13:00,
2013-10-12 10:18:00,62.6,60.5,30.08,North,5,0.0,0.0,93,0.00,,CLR,0.10,44.00,VWS V14.01,2013-10-12 14:18:00,
2013-10-12 10:23:00,62.6,60.5,30.08,North,9,0.0,2.0,93,0.00,,CLR,0.10,44.00,VWS V14.01,2013-10-12 14:23:00,
2013-10-12 10:29:00,62.7,60.7,30.08,NNE,13,0.0,1.0,93,0.00,,CLR,0.10,40.00,VWS V14.01,2013-10-12 14:29:00,
2013-10-12 10:34:00,62.7,60.3,30.08,NNE,13,0.0,0.0,92,0.00,,CLR,0.10,53.00,VWS V14.01,2013-10-12 14:34:00,
2013-10-12 10:39:00,62.7,60.3,30.08,NNE,13,0.0,1.0,92,0.00,,CLR,0.10,49.00,VWS V14.01,2013-10-12 14:39:00,
2013-10-12 10:44:00,62.7,60.3,30.08,NNE,13,0.0,0.0,92,0.00,,CLR,0.10,47.00,VWS V14.01,2013-10-12 14:44:00,
2013-10-12 10:49:00,62.7,60.3,30.09,NNE,13,0.0,0.0,92,0.00,,CLR,0.10,37.00,VWS V14.01,2013-10-12 14:49:00,
2013-10-12 10:54:00,62.7,60.0,30.09,NNE,13,0.0,0.0,91,0.00,,CLR,0.10,39.00,VWS V14.01,2013-10-12 14:54:00,
2013-10-12 10:59:00,62.7,60.0,30.09,NNE,13,0.0,0.0,91,0.00,,CLR,0.10,47.00,VWS V14.01,2013-10-12 14:59:00,
2013-10-12 11:04:00,62.7,60.0,30.09,North,9,1.0,1.0,91,0.00,,CLR,0.10,47.00,VWS V14.01,2013-10-12 15:04:00,
2013-10-12 11:10:00,62.7,60.0,30.09,North,349,0.0,4.0,91,0.00,,CLR,0.10,46.00,VWS V14.01,2013-10-12 15:10:00,
2013-10-12 11:15:00,62.6,59.9,30.09,NNE,13,0.0,3.0,91,0.00,,CLR,0.10,37.00,VWS V14.01,2013-10-12 15:15:00,
2013-10-12 11:20:00,62.5,59.8,30.09,North,5,0.0,1.0,91,0.00,,CLR,0.10,40.00,VWS V14.01,2013-10-12 15:20:00,
2013-10-12 11:25:00,62.3,59.6,30.09,NNW,344,0.0,1.0,91,0.00,,CLR,0.10,46.00,VWS V14.01,2013-10-12 15:25:00,
2013-10-12 11:30:00,62.2,59.8,30.09,North,355,0.0,3.0,92,0.00,,CLR,0.10,53.00,VWS V14.01,2013-10-12 15:30:00,
2013-10-12 11:35:00,62.1,59.8,30.09,North,355,0.0,3.0,92,0.00,,CLR,0.10,62.00,VWS V14.01,2013-10-12 15:35:00,
2013-10-12 11:40:00,62.1,59.8,30.09,NNE,15,0.0,1.0,92,0.00,,CLR,0.10,58.00,VWS V14.01,2013-10-12 15:40:00,
2013-10-12 11:45:00,62.1,59.8,30.09,NNE,14,0.0,0.0,92,0.00,,CLR,0.10,44.00,VWS V14.01,2013-10-12 15:45:00,
2013-10-12 11:50:00,62.1,59.8,30.09,NNE,14,0.0,1.0,92,0.00,,CLR,0.10,49.00,VWS V14.01,2013-10-12 15:50:00,
2013-10-12 11:55:00,62.1,59.8,30.09,NNE,13,0.0,1.0,92,0.00,,CLR,0.10,69.00,VWS V14.01,2013-10-12 15:55:00,
2013-10-12 12:01:00,62.2,59.8,30.09,North,10,0.0,1.0,92,0.00,,CLR,0.10,54.00,VWS V14.01,2013-10-12 16:01:00,
2013-10-12 12:06:00,62.2,59.8,30.09,North,360,4.0,5.0,92,0.00,,CLR,0.10,69.00,VWS V14.01,2013-10-12 16:06:00,
2013-10-12 12:11:00,62.1,59.8,30.09,North,11,0.0,1.0,92,0.00,,CLR,0.10,63.00,VWS V14.01,2013-10-12 16:11:00,
2013-10-12 12:16:00,62.1,60.1,30.09,NNE,22,0.0,1.0,93,0.01,,CLR,0.11,81.00,VWS V14.01,2013-10-12 16:16:00,
2013-10-12 12:21:00,62.1,60.1,30.09,North,360,3.0,4.0,93,0.06,,CLR,0.16,163.00,VWS V14.01,2013-10-12 16:21:00,
2013-10-12 12:26:00,61.9,59.9,30.09,NE,37,2.0,5.0,93,0.08,,CLR,0.18,197.00,VWS V14.01,2013-10-12 16:26:00,
2013-10-12 12:31:00,61.6,59.9,30.09,North,351,0.0,6.0,94,0.08,,CLR,0.18,211.00,VWS V14.01,2013-10-12 16:31:00,
2013-10-12 12:36:00,61.6,60.2,30.09,NNE,22,0.0,3.0,95,0.08,,CLR,0.18,213.00,VWS V14.01,2013-10-12 16:36:00,
2013-10-12 12:41:00,61.5,60.1,30.09,NE,35,4.0,5.0,95,0.08,,CLR,0.18,200.00,VWS V14.01,2013-10-12 16:41:00,
2013-10-12 12:46:00,61.3,59.9,30.09,NNE,19,2.0,4.0,95,0.08,,CLR,0.18,167.00,VWS V14.01,2013-10-12 16:46:00,
2013-10-12 12:52:00,61.3,59.9,30.09,NW,324,5.0,5.0,95,0.08,,CLR,0.18,141.00,VWS V14.01,2013-10-12 16:52:00,
2013-10-12 12:57:00,61.0,59.6,30.09,NNE,13,0.0,6.0,95,0.08,,CLR,0.18,155.00,VWS V14.01,2013-10-12 16:57:00,
2013-10-12 13:02:00,60.8,59.4,30.09,NNE,19,1.0,6.0,95,0.08,,CLR,0.18,169.00,VWS V14.01,2013-10-12 17:02:00,
2013-10-12 13:07:00,60.8,59.7,30.09,North,9,4.0,4.0,96,0.08,,CLR,0.18,179.00,VWS V14.01,2013-10-12 17:07:00,
2013-10-12 13:12:00,60.9,59.8,30.08,NNW,346,4.0,4.0,96,0.08,,CLR,0.18,207.00,VWS V14.01,2013-10-12 17:12:00,
2013-10-12 13:17:00,61.0,59.9,30.08,NNE,14,3.0,4.0,96,0.08,,CLR,0.18,232.00,VWS V14.01,2013-10-12 17:17:00,
2013-10-12 13:22:00,61.0,59.9,30.08,NNE,22,2.0,5.0,96,0.06,,CLR,0.18,281.00,VWS V14.01,2013-10-12 17:22:00,
2013-10-12 13:27:00,61.2,60.3,30.08,NNE,23,0.0,3.0,97,0.01,,CLR,0.18,258.00,VWS V14.01,2013-10-12 17:27:00,
2013-10-12 13:32:00,61.3,60.4,30.08,NNW,346,1.0,4.0,97,0.00,,CLR,0.18,267.00,VWS V14.01,2013-10-12 17:32:00,
2013-10-12 13:37:00,61.5,60.6,30.08,North,355,4.0,4.0,97,0.00,,CLR,0.18,302.00,VWS V14.01,2013-10-12 17:37:00,
2013-10-12 13:43:00,62.0,61.1,30.07,North,360,2.0,4.0,97,0.00,,CLR,0.18,292.00,VWS V14.01,2013-10-12 17:43:00,
2013-10-12 13:48:00,62.2,61.3,30.07,North,360,0.0,5.0,97,0.00,,CLR,0.18,295.00,VWS V14.01,2013-10-12 17:48:00,
2013-10-12 13:53:00,62.3,61.2,30.07,North,360,0.0,6.0,96,0.00,,CLR,0.18,322.00,VWS V14.01,2013-10-12 17:53:00,
2013-10-12 13:58:00,62.7,61.5,30.07,North,360,0.0,5.0,96,0.00,,CLR,0.18,348.00,VWS V14.01,2013-10-12 17:58:00,
2013-10-12 14:03:00,63.0,61.8,30.07,NNW,327,2.0,5.0,96,0.00,,CLR,0.18,396.00,VWS V14.01,2013-10-12 18:03:00,
2013-10-12 14:08:00,63.5,62.0,30.07,NNW,329,3.0,6.0,95,0.00,,CLR,0.18,313.00,VWS V14.01,2013-10-12 18:08:00,
2013-10-12 14:13:00,63.8,62.3,30.07,North,360,2.0,4.0,95,0.00,,CLR,0.18,267.00,VWS V14.01,2013-10-12 18:13:00,
2013-10-12 14:18:00,64.1,62.3,30.07,NNW,348,2.0,4.0,94,0.00,,CLR,0.18,267.00,VWS V14.01,2013-10-12 18:18:00,
2013-10-12 14:23:00,64.3,62.2,30.07,NNW,333,0.0,5.0,93,0.00,,CLR,0.18,292.00,VWS V14.01,2013-10-12 18:23:00,
2013-10-12 14:28:00,64.8,62.4,30.07,NNW,329,7.0,7.0,92,0.00,,CLR,0.18,380.00,VWS V14.01,2013-10-12 18:28:00,
2013-10-12 14:34:00,65.4,62.7,30.07,North,355,3.0,7.0,91,0.00,,CLR,0.18,515.00,VWS V14.01,2013-10-12 18:34:00,
2013-10-12 14:39:00,66.5,63.2,30.07,NNE,15,0.0,8.0,89,0.00,,CLR,0.18,504.00,VWS V14.01,2013-10-12 18:39:00,
2013-10-12 14:44:00,66.8,62.2,30.07,NNE,29,0.0,6.0,85,0.00,,CLR,0.18,278.00,VWS V14.01,2013-10-12 18:44:00,
2013-10-12 14:49:00,66.8,61.5,30.07,North,9,2.0,6.0,83,0.00,,CLR,0.18,323.00,VWS V14.01,2013-10-12 18:49:00,
2013-10-12 14:54:00,67.0,61.7,30.07,North,5,2.0,3.0,83,0.00,,CLR,0.18,271.00,VWS V14.01,2013-10-12 18:54:00,
2013-10-12 14:59:00,67.1,61.4,30.07,NNE,19,3.0,4.0,82,0.00,,CLR,0.18,246.00,VWS V14.01,2013-10-12 18:59:00,
2013-10-12 15:04:00,67.2,61.5,30.07,East,82,0.0,4.0,82,0.00,,CLR,0.18,229.00,VWS V14.01,2013-10-12 19:04:00,
2013-10-12 15:09:00,67.5,61.5,30.07,North,9,0.0,3.0,81,0.00,,CLR,0.18,207.00,VWS V14.01,2013-10-12 19:09:00,
2013-10-12 15:14:00,67.5,60.8,30.07,North,360,1.0,3.0,79,0.00,,CLR,0.18,202.00,VWS V14.01,2013-10-12 19:14:00,
2013-10-12 15:19:00,67.7,61.7,30.07,North,5,0.0,1.0,81,0.00,,CLR,0.18,264.00,VWS V14.01,2013-10-12 19:19:00,
2013-10-12 15:24:00,68.1,61.3,30.07,North,360,0.0,0.0,79,0.00,,CLR,0.18,264.00,VWS V14.01,2013-10-12 19:24:00,
2013-10-12 15:29:00,68.3,61.2,30.07,North,5,0.0,2.0,78,0.00,,CLR,0.18,327.00,VWS V14.01,2013-10-12 19:29:00,
2013-10-12 15:34:00,68.7,61.6,30.07,NNE,28,0.0,2.0,78,0.00,,CLR,0.18,292.00,VWS V14.01,2013-10-12 19:34:00,
2013-10-12 15:39:00,69.0,60.4,30.06,NNE,18,1.0,3.0,74,0.00,,CLR,0.18,353.00,VWS V14.01,2013-10-12 19:39:00,
2013-10-12 15:44:00,69.4,61.1,30.06,NE,34,0.0,1.0,75,0.00,,CLR,0.18,443.00,VWS V14.01,2013-10-12 19:44:00,
2013-10-12 15:49:00,69.8,61.2,30.06,ESE,113,0.0,2.0,74,0.00,,CLR,0.18,250.00,VWS V14.01,2013-10-12 19:49:00,
2013-10-12 15:54:00,69.7,60.7,30.07,ENE,78,0.0,1.0,73,0.00,,CLR,0.18,206.00,VWS V14.01,2013-10-12 19:54:00,
2013-10-12 15:59:00,69.5,60.1,30.06,NNE,14,4.0,4.0,72,0.00,,CLR,0.18,155.00,VWS V14.01,2013-10-12 19:59:00,
2013-10-12 16:04:00,69.4,60.4,30.06,East,94,0.0,4.0,73,0.00,,CLR,0.18,171.00,VWS V14.01,2013-10-12 20:04:00,
2013-10-12 16:09:00,69.1,60.1,30.06,East,101,0.0,0.0,73,0.00,,CLR,0.18,183.00,VWS V14.01,2013-10-12 20:09:00,
2013-10-12 16:14:00,69.0,60.8,30.07,East,101,0.0,0.0,75,0.00,,CLR,0.18,149.00,VWS V14.01,2013-10-12 20:14:00,
2013-10-12 16:20:00,68.9,60.3,30.07,ESE,102,0.0,0.0,74,0.00,,CLR,0.18,107.00,VWS V14.01,2013-10-12 20:20:00,
2013-10-12 16:25:00,68.7,59.7,30.07,ESE,102,0.0,0.0,73,0.00,,CLR,0.18,100.00,VWS V14.01,2013-10-12 20:25:00,
2013-10-12 16:30:00,68.7,60.1,30.07,ESE,102,0.0,0.0,74,0.00,,CLR,0.18,109.00,VWS V14.01,2013-10-12 20:30:00,
2013-10-12 16:35:00,68.6,60.4,30.07,East,101,0.0,1.0,75,0.00,,CLR,0.18,127.00,VWS V14.01,2013-10-12 20:35:00,
2013-10-12 16:40:00,68.5,60.3,30.07,SE,134,1.0,1.0,75,0.00,,CLR,0.18,107.00,VWS V14.01,2013-10-12 20:40:00,
2013-10-12 16:45:00,68.3,59.3,30.07,SE,134,0.0,7.0,73,0.00,,CLR,0.18,100.00,VWS V14.01,2013-10-12 20:45:00,
2013-10-12 16:50:00,68.1,58.7,30.08,East,97,0.0,1.0,72,0.00,,CLR,0.18,74.00,VWS V14.01,2013-10-12 20:50:00,
2013-10-12 16:56:00,67.8,58.1,30.08,ENE,70,2.0,4.0,71,0.00,,CLR,0.18,69.00,VWS V14.01,2013-10-12 20:56:00,
2013-10-12 17:01:00,67.6,58.3,30.08,NE,53,0.0,0.0,72,0.00,,CLR,0.18,67.00,VWS V14.01,2013-10-12 21:01:00,
2013-10-12 17:06:00,67.5,58.2,30.08,ESE,117,0.0,3.0,72,0.00,,CLR,0.18,62.00,VWS V14.01,2013-10-12 21:06:00,
2013-10-12 17:11:00,67.3,58.0,30.08,East,82,0.0,3.0,72,0.00,,CLR,0.18,53.00,VWS V14.01,2013-10-12 21:11:00,
2013-10-12 17:16:00,67.2,57.9,30.08,East,80,0.0,1.0,72,0.00,,CLR,0.18,53.00,VWS V14.01,2013-10-12 21:16:00,
2013-10-12 17:21:00,67.1,57.8,30.09,East,82,0.0,1.0,72,0.00,,CLR,0.18,49.00,VWS V14.01,2013-10-12 21:21:00,
2013-10-12 17:27:00,66.9,57.6,30.09,East,81,0.0,0.0,72,0.00,,CLR,0.18,40.00,VWS V14.01,2013-10-12 21:27:00,
2013-10-12 17:32:00,66.8,58.3,30.09,East,80,0.0,1.0,74,0.00,,CLR,0.18,32.00,VWS V14.01,2013-10-12 21:32:00,
2013-10-12 17:37:00,66.7,57.8,30.10,NE,56,0.0,3.0,73,0.00,,CLR,0.18,30.00,VWS V14.01,2013-10-12 21:37:00,
2013-10-12 17:42:00,66.5,57.6,30.10,ENE,71,0.0,3.0,73,0.00,,CLR,0.18,18.00,VWS V14.01,2013-10-12 21:42:00,
2013-10-12 17:47:00,66.3,57.4,30.10,SE,144,1.0,6.0,73,0.00,,CLR,0.18,12.00,VWS V14.01,2013-10-12 21:47:00,
2013-10-12 17:52:00,65.9,57.0,30.11,East,101,0.0,9.0,73,0.00,,CLR,0.18,11.00,VWS V14.01,2013-10-12 21:52:00,
2013-10-12 17:57:00,65.5,57.0,30.11,ENE,77,0.0,7.0,74,0.00,,CLR,0.18,5.00,VWS V14.01,2013-10-12 21:57:00,
2013-10-12 18:02:00,65.0,56.9,30.12,SSE,150,0.0,12.0,75,0.00,,CLR,0.18,0.00,VWS V14.01,2013-10-12 22:02:00,
2013-10-12 18:08:00,64.4,56.7,30.12,ESE,117,0.0,2.0,76,0.00,,CLR,0.18,0.00,VWS V14.01,2013-10-12 22:08:00,
2013-10-12 18:13:00,63.9,56.2,30.12,NE,48,0.0,7.0,76,0.00,,CLR,0.18,0.00,VWS V14.01,2013-10-12 22:13:00,
2013-10-12 18:18:00,63.4,55.7,30.12,ENE,69,0.0,7.0,76,0.00,,CLR,0.18,0.00,VWS V14.01,2013-10-12 22:18:00,
2013-10-12 18:23:00,63.0,55.3,30.12,ESE,105,0.0,6.0,76,0.00,,CLR,0.18,0.00,VWS V14.01,2013-10-12 22:23:00,
2013-10-12 18:28:00,62.8,55.1,30.12,SE,130,0.0,2.0,76,0.00,,CLR,0.18,0.00,VWS V14.01,2013-10-12 22:28:00,
2013-10-12 18:33:00,62.6,55.3,30.13,ENE,66,0.0,5.0,77,0.00,,CLR,0.18,0.00,VWS V14.01,2013-10-12 22:33:00,
2013-10-12 18:38:00,62.3,55.4,30.13,ESE,107,0.0,5.0,78,0.00,,CLR,0.18,0.00,VWS V14.01,2013-10-12 22:38:00,
2013-10-12 18:43:00,62.0,55.4,30.13,East,89,0.0,1.0,79,0.00,,CLR,0.18,0.00,VWS V14.01,2013-10-12 22:43:00,
2013-10-12 18:48:00,61.7,55.5,30.13,NNE,30,0.0,3.0,80,0.00,,CLR,0.18,0.00,VWS V14.01,2013-10-12 22:48:00,
2013-10-12 18:54:00,61.3,55.4,30.13,NNE,14,0.0,3.0,81,0.00,,CLR,0.18,0.00,VWS V14.01,2013-10-12 22:54:00,
2013-10-12 18:59:00,60.9,55.7,30.13,North,360,1.0,6.0,83,0.00,,CLR,0.18,0.00,VWS V14.01,2013-10-12 22:59:00,
2013-10-12 19:04:00,60.5,55.7,30.13,North,360,0.0,0.0,84,0.00,,CLR,0.18,0.00,VWS V14.01,2013-10-12 23:04:00,
2013-10-12 19:09:00,60.1,55.9,30.13,NNE,24,4.0,4.0,86,0.00,,CLR,0.18,0.00,VWS V14.01,2013-10-12 23:09:00,
2013-10-12 19:14:00,59.7,55.8,30.13,North,5,0.0,0.0,87,0.00,,CLR,0.18,0.00,VWS V14.01,2013-10-12 23:14:00,
2013-10-12 19:19:00,59.4,55.5,30.14,NNE,12,0.0,1.0,87,0.00,,CLR,0.18,0.00,VWS V14.01,2013-10-12 23:19:00,
2013-10-12 19:24:00,59.0,55.5,30.14,NNW,348,2.0,2.0,88,0.00,,CLR,0.18,0.00,VWS V14.01,2013-10-12 23:24:00,
2013-10-12 19:29:00,59.0,55.8,30.14,NNW,346,0.0,1.0,89,0.00,,CLR,0.18,0.00,VWS V14.01,2013-10-12 23:29:00,
2013-10-12 19:34:00,59.0,56.1,30.14,North,350,0.0,1.0,90,0.00,,CLR,0.18,0.00,VWS V14.01,2013-10-12 23:34:00,
2013-10-12 19:40:00,58.9,56.0,30.14,NNE,25,0.0,2.0,90,0.00,,CLR,0.18,0.00,VWS V14.01,2013-10-12 23:40:00,
2013-10-12 19:45:00,58.7,56.1,30.14,North,360,0.0,1.0,91,0.00,,CLR,0.18,0.00,VWS V14.01,2013-10-12 23:45:00,
2013-10-12 19:50:00,58.6,56.0,30.14,North,360,0.0,2.0,91,0.00,,CLR,0.18,0.00,VWS V14.01,2013-10-12 23:50:00,
2013-10-12 19:55:00,58.6,56.0,30.14,North,350,0.0,1.0,91,0.00,,CLR,0.18,0.00,VWS V14.01,2013-10-12 23:55:00,
2013-10-12 20:00:00,58.5,56.2,30.14,North,350,0.0,0.0,92,0.00,,CLR,0.18,0.00,VWS V14.01,2013-10-13 00:00:00,
2013-10-12 20:05:00,58.3,56.0,30.14,North,355,0.0,3.0,92,0.00,,CLR,0.18,0.00,VWS V14.01,2013-10-13 00:05:00,
2013-10-12 20:10:00,58.2,55.9,30.14,NNW,329,0.0,0.0,92,0.00,,CLR,0.18,0.00,VWS V14.01,2013-10-13 00:10:00,
2013-10-12 20:15:00,58.1,55.8,30.15,NNW,329,0.0,0.0,92,0.00,,CLR,0.18,0.00,VWS V14.01,2013-10-13 00:15:00,
2013-10-12 20:21:00,58.1,56.1,30.14,NNW,329,0.0,0.0,93,0.00,,CLR,0.18,0.00,VWS V14.01,2013-10-13 00:21:00,
2013-10-12 20:26:00,58.0,56.0,30.14,NNW,329,0.0,0.0,93,0.00,,CLR,0.18,0.00,VWS V14.01,2013-10-13 00:26:00,
2013-10-12 20:31:00,58.0,56.0,30.14,NNW,329,0.0,0.0,93,0.00,,CLR,0.18,0.00,VWS V14.01,2013-10-13 00:31:00,
2013-10-12 20:36:00,57.9,55.9,30.15,NNW,329,0.0,0.0,93,0.00,,CLR,0.18,0.00,VWS V14.01,2013-10-13 00:36:00,
2013-10-12 20:41:00,57.9,55.9,30.14,NNW,329,0.0,0.0,93,0.00,,CLR,0.18,0.00,VWS V14.01,2013-10-13 00:41:00,
2013-10-12 20:46:00,57.9,55.9,30.14,NNW,329,0.0,0.0,93,0.00,,CLR,0.18,0.00,VWS V14.01,2013-10-13 00:46:00,
2013-10-12 20:51:00,57.9,55.9,30.14,NNW,329,0.0,0.0,93,0.00,,CLR,0.18,0.00,VWS V14.01,2013-10-13 00:51:00,
2013-10-12 20:56:00,57.8,55.8,30.14,NNW,329,0.0,0.0,93,0.00,,CLR,0.18,0.00,VWS V14.01,2013-10-13 00:56:00,
2013-10-12 21:02:00,57.8,55.8,30.15,NNW,329,0.0,0.0,93,0.00,,CLR,0.18,0.00,VWS V14.01,2013-10-13 01:02:00,
2013-10-12 21:07:00,57.7,55.7,30.15,NNW,329,0.0,0.0,93,0.00,,CLR,0.18,0.00,VWS V14.01,2013-10-13 01:07:00,
2013-10-12 21:12:00,57.6,55.6,30.15,NNW,329,0.0,0.0,93,0.00,,CLR,0.18,0.00,VWS V14.01,2013-10-13 01:12:00,
2013-10-12 21:17:00,57.5,55.5,30.15,NNW,329,0.0,0.0,93,0.00,,CLR,0.18,0.00,VWS V14.01,2013-10-13 01:17:00,
2013-10-12 21:22:00,57.5,55.8,30.15,NNW,329,0.0,0.0,94,0.00,,CLR,0.18,0.00,VWS V14.01,2013-10-13 01:22:00,
2013-10-12 21:27:00,57.4,55.7,30.15,NNW,329,0.0,0.0,94,0.00,,CLR,0.18,0.00,VWS V14.01,2013-10-13 01:27:00,
2013-10-12 21:33:00,57.3,55.6,30.15,NNW,329,0.0,0.0,94,0.00,,CLR,0.18,0.00,VWS V14.01,2013-10-13 01:33:00,
2013-10-12 21:38:00,57.3,55.6,30.15,NNW,329,0.0,0.0,94,0.00,,CLR,0.18,0.00,VWS V14.01,2013-10-13 01:38:00,
2013-10-12 21:43:00,57.4,55.7,30.14,NNW,329,0.0,0.0,94,0.00,,CLR,0.18,0.00,VWS V14.01,2013-10-13 01:43:00,
2013-10-12 21:48:00,57.4,55.7,30.15,NNW,329,0.0,0.0,94,0.00,,CLR,0.18,0.00,VWS V14.01,2013-10-13 01:48:00,
2013-10-12 21:53:00,57.4,55.7,30.14,NNW,329,0.0,0.0,94,0.00,,CLR,0.18,0.00,VWS V14.01,2013-10-13 01:53:00,
2013-10-12 21:58:00,57.4,56.0,30.14,NNW,329,0.0,0.0,95,0.00,,CLR,0.18,0.00,VWS V14.01,2013-10-13 01:58:00,
2013-10-12 22:03:00,57.5,56.1,30.14,NNW,329,0.0,0.0,95,0.00,,CLR,0.18,0.00,VWS V14.01,2013-10-13 02:03:00,
2013-10-12 22:08:00,57.5,56.1,30.15,NNW,329,0.0,0.0,95,0.00,,CLR,0.18,0.00,VWS V14.01,2013-10-13 02:08:00,
2013-10-12 22:13:00,57.5,56.1,30.15,NNW,329,0.0,0.0,95,0.00,,CLR,0.18,0.00,VWS V14.01,2013-10-13 02:13:00,
2013-10-12 22:18:00,57.5,56.1,30.14,NNW,329,0.0,0.0,95,0.00,,CLR,0.18,0.00,VWS V14.01,2013-10-13 02:18:00,
2013-10-12 22:23:00,57.6,56.2,30.14,NNW,329,0.0,0.0,95,0.00,,CLR,0.18,0.00,VWS V14.01,2013-10-13 02:23:00,
2013-10-12 22:29:00,57.6,56.2,30.15,NNW,329,0.0,0.0,95,0.00,,CLR,0.18,0.00,VWS V14.01,2013-10-13 02:29:00,
2013-10-12 22:34:00,57.7,56.6,30.15,NNW,329,0.0,0.0,96,0.00,,CLR,0.18,0.00,VWS V14.01,2013-10-13 02:34:00,
2013-10-12 22:39:00,57.7,56.6,30.15,NNW,329,0.0,0.0,96,0.00,,CLR,0.18,0.00,VWS V14.01,2013-10-13 02:39:00,
2013-10-12 22:44:00,57.7,56.6,30.15,NNW,329,0.0,0.0,96,0.00,,CLR,0.18,0.00,VWS V14.01,2013-10-13 02:44:00,
2013-10-12 22:49:00,57.7,56.6,30.15,NNW,329,0.0,0.0,96,0.00,,CLR,0.18,0.00,VWS V14.01,2013-10-13 02:49:00,
2013-10-12 22:54:00,57.7,56.6,30.15,NNW,329,0.0,0.0,96,0.00,,CLR,0.18,0.00,VWS V14.01,2013-10-13 02:54:00,
2013-10-12 22:59:00,57.8,56.7,30.15,NNW,329,0.0,0.0,96,0.00,,CLR,0.18,0.00,VWS V14.01,2013-10-13 02:59:00,
2013-10-12 23:04:00,57.8,56.7,30.15,NNW,329,0.0,0.0,96,0.00,,CLR,0.18,0.00,VWS V14.01,2013-10-13 03:04:00,
2013-10-12 23:09:00,57.8,56.7,30.15,NNW,329,0.0,0.0,96,0.00,,CLR,0.18,0.00,VWS V14.01,2013-10-13 03:09:00,
2013-10-12 23:14:00,57.9,56.8,30.15,NNW,329,0.0,0.0,96,0.00,,CLR,0.18,0.00,VWS V14.01,2013-10-13 03:14:00,
2013-10-12 23:19:00,57.9,56.8,30.15,NW,317,0.0,0.0,96,0.00,,CLR,0.18,0.00,VWS V14.01,2013-10-13 03:19:00,
2013-10-12 23:25:00,57.9,56.8,30.15,NW,317,0.0,0.0,96,0.00,,CLR,0.18,0.00,VWS V14.01,2013-10-13 03:25:00,
2013-10-12 23:30:00,57.9,56.8,30.15,NW,317,0.0,1.0,96,0.00,,CLR,0.18,0.00,VWS V14.01,2013-10-13 03:30:00,
2013-10-12 23:35:00,57.9,56.8,30.15,NW,317,0.0,0.0,96,0.00,,CLR,0.18,0.00,VWS V14.01,2013-10-13 03:35:00,
2013-10-12 23:40:00,57.9,56.8,30.16,NW,317,0.0,0.0,96,0.00,,CLR,0.18,0.00,VWS V14.01,2013-10-13 03:40:00,
2013-10-12 23:45:00,57.9,56.8,30.16,NW,317,0.0,0.0,96,0.00,,CLR,0.18,0.00,VWS V14.01,2013-10-13 03:45:00,
2013-10-12 23:50:00,57.8,56.7,30.16,NW,317,0.0,0.0,96,0.00,,CLR,0.18,0.00,VWS V14.01,2013-10-13 03:50:00,
2013-10-12 23:55:00,57.8,56.7,30.16,NW,317,0.0,0.0,96,0.00,,CLR,0.18,0.00,VWS V14.01,2013-10-13 03:55:00,